sensor_id;sensor_type;location;lat;lon;timestamp;temperature;humidity
18932;DHT22;9598;50.954;3.112;2023-02-13T00:02:17;9.60;99.90
18932;DHT22;9598;50.954;3.112;2023-02-13T00:07:19;9.60;99.90
18932;DHT22;9598;50.954;3.112;2023-02-13T00:12:22;9.50;99.90
18932;DHT22;9598;50.954;3.112;2023-02-13T00:17:25;9.60;99.90
18932;DHT22;9598;50.954;3.112;2023-02-13T00:22:27;9.50;99.90
18932;DHT22;9598;50.954;3.112;2023-02-13T00:27:30;9.50;99.90
18932;DHT22;9598;50.954;3.112;2023-02-13T00:32:33;9.50;99.90
18932;DHT22;9598;50.954;3.112;2023-02-13T00:37:36;9.50;99.90
18932;DHT22;9598;50.954;3.112;2023-02-13T00:42:39;9.50;99.90
18932;DHT22;9598;50.954;3.112;2023-02-13T00:47:41;9.50;99.90
18932;DHT22;9598;50.954;3.112;2023-02-13T00:52:44;9.50;99.90
18932;DHT22;9598;50.954;3.112;2023-02-13T00:57:48;9.40;99.90
18932;DHT22;9598;50.954;3.112;2023-02-13T01:02:50;9.40;99.90
18932;DHT22;9598;50.954;3.112;2023-02-13T01:07:52;9.40;99.90
18932;DHT22;9598;50.954;3.112;2023-02-13T01:12:56;9.50;99.90
18932;DHT22;9598;50.954;3.112;2023-02-13T01:17:58;9.50;99.90
18932;DHT22;9598;50.954;3.112;2023-02-13T01:23:02;9.40;99.90
18932;DHT22;9598;50.954;3.112;2023-02-13T01:28:07;9.40;99.90
18932;DHT22;9598;50.954;3.112;2023-02-13T01:33:09;9.50;99.90
18932;DHT22;9598;50.954;3.112;2023-02-13T01:38:12;9.60;99.90
18932;DHT22;9598;50.954;3.112;2023-02-13T01:43:15;9.50;99.90
18932;DHT22;9598;50.954;3.112;2023-02-13T01:48:18;9.50;99.90
18932;DHT22;9598;50.954;3.112;2023-02-13T01:53:26;9.50;99.90
18932;DHT22;9598;50.954;3.112;2023-02-13T01:58:33;9.50;99.90
18932;DHT22;9598;50.954;3.112;2023-02-13T02:03:39;9.50;99.90
18932;DHT22;9598;50.954;3.112;2023-02-13T02:08:47;9.40;99.90
18932;DHT22;9598;50.954;3.112;2023-02-13T02:13:57;9.40;99.90
18932;DHT22;9598;50.954;3.112;2023-02-13T02:19:13;9.40;99.90
18932;DHT22;9598;50.954;3.112;2023-02-13T02:24:38;9.30;99.90
18932;DHT22;9598;50.954;3.112;2023-02-13T02:30:16;9.30;99.90
18932;DHT22;9598;50.954;3.112;2023-02-13T02:35:31;9.30;99.90
18932;DHT22;9598;50.954;3.112;2023-02-13T02:40:43;9.20;99.90
18932;DHT22;9598;50.954;3.112;2023-02-13T02:45:51;9.20;99.90
18932;DHT22;9598;50.954;3.112;2023-02-13T02:51:01;9.20;99.90
18932;DHT22;9598;50.954;3.112;2023-02-13T02:56:11;9.20;99.90
18932;DHT22;9598;50.954;3.112;2023-02-13T03:01:17;9.10;99.90
18932;DHT22;9598;50.954;3.112;2023-02-13T03:06:44;9.10;99.90
18932;DHT22;9598;50.954;3.112;2023-02-13T03:11:49;9.10;99.90
18932;DHT22;9598;50.954;3.112;2023-02-13T03:17:11;9.00;99.90
18932;DHT22;9598;50.954;3.112;2023-02-13T03:22:44;9.00;99.90
18932;DHT22;9598;50.954;3.112;2023-02-13T03:27:55;9.00;99.90
18932;DHT22;9598;50.954;3.112;2023-02-13T03:33:25;9.00;99.90
18932;DHT22;9598;50.954;3.112;2023-02-13T03:38:37;8.90;99.90
18932;DHT22;9598;50.954;3.112;2023-02-13T03:43:46;9.00;99.90
18932;DHT22;9598;50.954;3.112;2023-02-13T03:48:50;9.00;99.90
18932;DHT22;9598;50.954;3.112;2023-02-13T03:54:16;9.00;99.90
18932;DHT22;9598;50.954;3.112;2023-02-13T03:59:23;9.10;99.90
18932;DHT22;9598;50.954;3.112;2023-02-13T04:04:34;9.20;99.90
18932;DHT22;9598;50.954;3.112;2023-02-13T04:09:42;9.20;99.90
18932;DHT22;9598;50.954;3.112;2023-02-13T04:14:49;9.20;99.90
18932;DHT22;9598;50.954;3.112;2023-02-13T04:19:54;9.20;99.90
18932;DHT22;9598;50.954;3.112;2023-02-13T04:24:57;9.10;99.90
18932;DHT22;9598;50.954;3.112;2023-02-13T04:29:59;9.10;99.90
18932;DHT22;9598;50.954;3.112;2023-02-13T04:35:02;9.00;99.90
18932;DHT22;9598;50.954;3.112;2023-02-13T04:40:07;9.00;99.90
18932;DHT22;9598;50.954;3.112;2023-02-13T04:45:10;9.10;99.90
18932;DHT22;9598;50.954;3.112;2023-02-13T04:50:12;9.10;99.90
18932;DHT22;9598;50.954;3.112;2023-02-13T04:55:15;9.20;99.90
18932;DHT22;9598;50.954;3.112;2023-02-13T05:00:19;9.20;99.90
18932;DHT22;9598;50.954;3.112;2023-02-13T05:05:21;9.10;99.90
18932;DHT22;9598;50.954;3.112;2023-02-13T05:10:25;9.10;99.90
18932;DHT22;9598;50.954;3.112;2023-02-13T05:15:27;9.00;99.90
18932;DHT22;9598;50.954;3.112;2023-02-13T05:20:29;9.00;99.90
18932;DHT22;9598;50.954;3.112;2023-02-13T05:25:34;9.00;99.90
18932;DHT22;9598;50.954;3.112;2023-02-13T05:30:36;9.00;99.90
18932;DHT22;9598;50.954;3.112;2023-02-13T05:35:39;8.90;99.90
18932;DHT22;9598;50.954;3.112;2023-02-13T05:40:43;8.90;99.90
18932;DHT22;9598;50.954;3.112;2023-02-13T05:45:45;8.80;99.90
18932;DHT22;9598;50.954;3.112;2023-02-13T05:50:47;8.70;99.90
18932;DHT22;9598;50.954;3.112;2023-02-13T05:55:51;8.60;99.90
18932;DHT22;9598;50.954;3.112;2023-02-13T06:00:54;8.60;99.90
18932;DHT22;9598;50.954;3.112;2023-02-13T06:05:57;8.60;99.90
18932;DHT22;9598;50.954;3.112;2023-02-13T06:11:01;8.50;99.90
18932;DHT22;9598;50.954;3.112;2023-02-13T06:16:03;8.50;99.90
18932;DHT22;9598;50.954;3.112;2023-02-13T06:21:06;8.40;99.90
18932;DHT22;9598;50.954;3.112;2023-02-13T06:26:10;8.40;99.90
18932;DHT22;9598;50.954;3.112;2023-02-13T06:31:12;8.40;99.90
18932;DHT22;9598;50.954;3.112;2023-02-13T06:36:14;8.30;99.90
18932;DHT22;9598;50.954;3.112;2023-02-13T06:41:17;8.20;99.90
18932;DHT22;9598;50.954;3.112;2023-02-13T06:46:19;8.20;99.90
18932;DHT22;9598;50.954;3.112;2023-02-13T06:51:22;8.10;99.90
18932;DHT22;9598;50.954;3.112;2023-02-13T06:56:25;8.10;99.90
18932;DHT22;9598;50.954;3.112;2023-02-13T07:01:27;8.10;99.90
18932;DHT22;9598;50.954;3.112;2023-02-13T07:06:29;8.00;99.90
18932;DHT22;9598;50.954;3.112;2023-02-13T07:11:33;8.00;99.90
18932;DHT22;9598;50.954;3.112;2023-02-13T07:16:35;7.90;99.90
18932;DHT22;9598;50.954;3.112;2023-02-13T07:21:37;7.90;99.90
18932;DHT22;9598;50.954;3.112;2023-02-13T07:26:40;7.80;99.90
18932;DHT22;9598;50.954;3.112;2023-02-13T07:31:42;7.80;99.90
18932;DHT22;9598;50.954;3.112;2023-02-13T07:36:44;7.70;99.90
18932;DHT22;9598;50.954;3.112;2023-02-13T07:41:48;7.60;99.90
18932;DHT22;9598;50.954;3.112;2023-02-13T07:46:50;7.50;99.90
18932;DHT22;9598;50.954;3.112;2023-02-13T07:51:52;7.50;99.90
18932;DHT22;9598;50.954;3.112;2023-02-13T07:56:58;7.50;99.90
18932;DHT22;9598;50.954;3.112;2023-02-13T08:02:00;7.50;99.90
18932;DHT22;9598;50.954;3.112;2023-02-13T08:07:02;7.50;99.90
18932;DHT22;9598;50.954;3.112;2023-02-13T08:12:07;7.50;99.90
18932;DHT22;9598;50.954;3.112;2023-02-13T08:17:09;7.50;99.90
18932;DHT22;9598;50.954;3.112;2023-02-13T08:22:13;7.60;99.90
18932;DHT22;9598;50.954;3.112;2023-02-13T08:27:16;7.60;99.90
18932;DHT22;9598;50.954;3.112;2023-02-13T08:32:18;7.60;99.90
18932;DHT22;9598;50.954;3.112;2023-02-13T08:37:21;7.60;99.90
18932;DHT22;9598;50.954;3.112;2023-02-13T08:42:24;7.60;99.90
18932;DHT22;9598;50.954;3.112;2023-02-13T08:47:26;7.60;99.90
18932;DHT22;9598;50.954;3.112;2023-02-13T08:52:28;7.60;99.90
18932;DHT22;9598;50.954;3.112;2023-02-13T08:57:32;7.70;99.90
18932;DHT22;9598;50.954;3.112;2023-02-13T09:02:34;7.70;99.90
18932;DHT22;9598;50.954;3.112;2023-02-13T09:07:36;7.70;99.90
18932;DHT22;9598;50.954;3.112;2023-02-13T09:12:39;7.80;99.90
18932;DHT22;9598;50.954;3.112;2023-02-13T09:17:41;7.90;99.90
18932;DHT22;9598;50.954;3.112;2023-02-13T09:22:44;7.90;99.90
18932;DHT22;9598;50.954;3.112;2023-02-13T09:27:47;7.90;99.90
18932;DHT22;9598;50.954;3.112;2023-02-13T09:32:49;8.00;99.90
18932;DHT22;9598;50.954;3.112;2023-02-13T09:37:52;8.10;99.90
18932;DHT22;9598;50.954;3.112;2023-02-13T09:43:06;8.20;99.90
18932;DHT22;9598;50.954;3.112;2023-02-13T09:48:17;8.30;99.90
18932;DHT22;9598;50.954;3.112;2023-02-13T09:53:21;8.50;99.90
18932;DHT22;9598;50.954;3.112;2023-02-13T09:58:42;8.70;99.90
18932;DHT22;9598;50.954;3.112;2023-02-13T10:03:52;8.90;99.90
18932;DHT22;9598;50.954;3.112;2023-02-13T10:09:05;9.00;99.90
18932;DHT22;9598;50.954;3.112;2023-02-13T10:14:16;9.20;99.90
18932;DHT22;9598;50.954;3.112;2023-02-13T10:19:34;9.30;99.90
18932;DHT22;9598;50.954;3.112;2023-02-13T10:24:39;9.50;99.90
18932;DHT22;9598;50.954;3.112;2023-02-13T10:29:48;9.60;99.90
18932;DHT22;9598;50.954;3.112;2023-02-13T10:35:19;9.70;99.90
18932;DHT22;9598;50.954;3.112;2023-02-13T10:40:26;9.70;99.90
18932;DHT22;9598;50.954;3.112;2023-02-13T10:45:48;9.80;99.90
18932;DHT22;9598;50.954;3.112;2023-02-13T10:50:57;9.80;99.90
18932;DHT22;9598;50.954;3.112;2023-02-13T10:56:27;9.90;99.90
18932;DHT22;9598;50.954;3.112;2023-02-13T11:01:36;10.00;99.90
18932;DHT22;9598;50.954;3.112;2023-02-13T11:06:42;10.10;99.90
18932;DHT22;9598;50.954;3.112;2023-02-13T11:11:44;10.20;99.90
18932;DHT22;9598;50.954;3.112;2023-02-13T11:16:52;10.20;99.90
18932;DHT22;9598;50.954;3.112;2023-02-13T11:21:58;10.30;99.90
18932;DHT22;9598;50.954;3.112;2023-02-13T11:27:04;10.30;99.90
18932;DHT22;9598;50.954;3.112;2023-02-13T11:32:21;10.40;99.90
18932;DHT22;9598;50.954;3.112;2023-02-13T11:37:26;10.50;99.90
18932;DHT22;9598;50.954;3.112;2023-02-13T11:42:30;10.60;99.90
18932;DHT22;9598;50.954;3.112;2023-02-13T11:47:36;10.70;99.90
18932;DHT22;9598;50.954;3.112;2023-02-13T11:52:39;10.80;99.90
18932;DHT22;9598;50.954;3.112;2023-02-13T11:57:41;10.90;99.90
18932;DHT22;9598;50.954;3.112;2023-02-13T12:02:47;11.00;99.90
18932;DHT22;9598;50.954;3.112;2023-02-13T12:07:51;11.10;99.90
18932;DHT22;9598;50.954;3.112;2023-02-13T12:12:58;11.20;99.90
18932;DHT22;9598;50.954;3.112;2023-02-13T12:18:14;11.20;99.90
18932;DHT22;9598;50.954;3.112;2023-02-13T12:23:28;11.20;99.90
18932;DHT22;9598;50.954;3.112;2023-02-13T12:28:45;11.30;99.90
18932;DHT22;9598;50.954;3.112;2023-02-13T12:39:25;11.50;99.90
18932;DHT22;9598;50.954;3.112;2023-02-13T12:44:42;11.60;99.90
18932;DHT22;9598;50.954;3.112;2023-02-13T12:50:03;11.70;99.90
18932;DHT22;9598;50.954;3.112;2023-02-13T12:55:20;11.80;99.90
18932;DHT22;9598;50.954;3.112;2023-02-13T13:00:33;11.80;99.90
18932;DHT22;9598;50.954;3.112;2023-02-13T13:05:58;11.90;99.90
18932;DHT22;9598;50.954;3.112;2023-02-13T13:11:16;12.00;99.90
18932;DHT22;9598;50.954;3.112;2023-02-13T13:16:28;12.00;99.90
18932;DHT22;9598;50.954;3.112;2023-02-13T13:21:40;12.10;99.90
18932;DHT22;9598;50.954;3.112;2023-02-13T13:26:47;12.10;99.90
18932;DHT22;9598;50.954;3.112;2023-02-13T13:31:52;12.10;99.90
18932;DHT22;9598;50.954;3.112;2023-02-13T13:37:01;12.20;99.90
18932;DHT22;9598;50.954;3.112;2023-02-13T13:42:11;12.30;99.90
18932;DHT22;9598;50.954;3.112;2023-02-13T13:47:25;12.30;99.90
18932;DHT22;9598;50.954;3.112;2023-02-13T13:52:35;12.40;99.90
18932;DHT22;9598;50.954;3.112;2023-02-13T13:58:01;12.50;99.90
18932;DHT22;9598;50.954;3.112;2023-02-13T14:03:32;12.60;99.90
18932;DHT22;9598;50.954;3.112;2023-02-13T14:14:51;12.60;99.90
18932;DHT22;9598;50.954;3.112;2023-02-13T14:19:54;12.60;99.90
18932;DHT22;9598;50.954;3.112;2023-02-13T14:24:58;12.60;99.90
18932;DHT22;9598;50.954;3.112;2023-02-13T14:30:05;12.60;99.90
18932;DHT22;9598;50.954;3.112;2023-02-13T14:35:17;12.60;99.90
18932;DHT22;9598;50.954;3.112;2023-02-13T14:40:43;12.60;99.90
18932;DHT22;9598;50.954;3.112;2023-02-13T14:45:50;12.60;99.90
18932;DHT22;9598;50.954;3.112;2023-02-13T14:50:55;12.60;99.90
18932;DHT22;9598;50.954;3.112;2023-02-13T14:56:05;12.60;99.90
18932;DHT22;9598;50.954;3.112;2023-02-13T15:01:20;12.60;99.90
18932;DHT22;9598;50.954;3.112;2023-02-13T15:06:27;12.50;99.90
18932;DHT22;9598;50.954;3.112;2023-02-13T15:11:32;12.50;99.90
18932;DHT22;9598;50.954;3.112;2023-02-13T15:16:39;12.50;99.90
18932;DHT22;9598;50.954;3.112;2023-02-13T15:21:48;12.50;99.90
18932;DHT22;9598;50.954;3.112;2023-02-13T15:26:57;12.50;99.90
18932;DHT22;9598;50.954;3.112;2023-02-13T15:32:16;12.50;99.90
18932;DHT22;9598;50.954;3.112;2023-02-13T15:37:20;12.50;99.90
18932;DHT22;9598;50.954;3.112;2023-02-13T15:42:22;12.40;99.90
18932;DHT22;9598;50.954;3.112;2023-02-13T15:47:29;12.40;99.90
18932;DHT22;9598;50.954;3.112;2023-02-13T15:52:35;12.40;99.90
18932;DHT22;9598;50.954;3.112;2023-02-13T15:57:39;12.40;99.90
18932;DHT22;9598;50.954;3.112;2023-02-13T16:02:44;12.40;99.90
18932;DHT22;9598;50.954;3.112;2023-02-13T16:07:48;12.40;99.90
18932;DHT22;9598;50.954;3.112;2023-02-13T16:12:51;12.30;99.90
18932;DHT22;9598;50.954;3.112;2023-02-13T16:17:55;12.30;99.90
18932;DHT22;9598;50.954;3.112;2023-02-13T16:23:01;12.20;99.90
18932;DHT22;9598;50.954;3.112;2023-02-13T16:28:16;12.20;99.90
18932;DHT22;9598;50.954;3.112;2023-02-13T16:33:25;12.10;99.90
18932;DHT22;9598;50.954;3.112;2023-02-13T16:38:31;12.10;99.90
18932;DHT22;9598;50.954;3.112;2023-02-13T16:43:41;12.10;99.90
18932;DHT22;9598;50.954;3.112;2023-02-13T16:48:47;12.00;99.90
18932;DHT22;9598;50.954;3.112;2023-02-13T16:53:59;11.90;99.90
18932;DHT22;9598;50.954;3.112;2023-02-13T16:59:11;11.90;99.90
18932;DHT22;9598;50.954;3.112;2023-02-13T17:04:22;11.80;99.90
18932;DHT22;9598;50.954;3.112;2023-02-13T17:09:25;11.80;99.90
18932;DHT22;9598;50.954;3.112;2023-02-13T17:14:27;11.70;99.90
18932;DHT22;9598;50.954;3.112;2023-02-13T17:19:30;11.60;99.90
18932;DHT22;9598;50.954;3.112;2023-02-13T17:24:32;11.50;99.90
18932;DHT22;9598;50.954;3.112;2023-02-13T17:29:35;11.40;99.90
18932;DHT22;9598;50.954;3.112;2023-02-13T17:34:38;11.40;99.90
18932;DHT22;9598;50.954;3.112;2023-02-13T17:39:40;11.30;99.90
18932;DHT22;9598;50.954;3.112;2023-02-13T17:44:42;11.30;99.90
18932;DHT22;9598;50.954;3.112;2023-02-13T17:49:46;11.20;99.90
18932;DHT22;9598;50.954;3.112;2023-02-13T17:54:49;11.10;99.90
18932;DHT22;9598;50.954;3.112;2023-02-13T17:59:51;11.10;99.90
18932;DHT22;9598;50.954;3.112;2023-02-13T18:04:56;11.00;99.90
18932;DHT22;9598;50.954;3.112;2023-02-13T18:09:58;11.00;99.90
18932;DHT22;9598;50.954;3.112;2023-02-13T18:15:01;10.90;99.90
18932;DHT22;9598;50.954;3.112;2023-02-13T18:20:12;10.90;99.90
18932;DHT22;9598;50.954;3.112;2023-02-13T18:25:14;10.80;99.90
18932;DHT22;9598;50.954;3.112;2023-02-13T18:30:18;10.70;99.90
18932;DHT22;9598;50.954;3.112;2023-02-13T18:35:22;10.70;99.90
18932;DHT22;9598;50.954;3.112;2023-02-13T18:40:24;10.60;99.90
18932;DHT22;9598;50.954;3.112;2023-02-13T18:45:26;10.50;99.90
18932;DHT22;9598;50.954;3.112;2023-02-13T18:50:30;10.40;99.90
18932;DHT22;9598;50.954;3.112;2023-02-13T18:55:32;10.50;99.90
18932;DHT22;9598;50.954;3.112;2023-02-13T19:00:34;10.40;99.90
18932;DHT22;9598;50.954;3.112;2023-02-13T19:05:40;10.30;99.90
18932;DHT22;9598;50.954;3.112;2023-02-13T19:10:42;10.30;99.90
18932;DHT22;9598;50.954;3.112;2023-02-13T19:15:44;10.20;99.90
18932;DHT22;9598;50.954;3.112;2023-02-13T19:20:48;10.20;99.90
18932;DHT22;9598;50.954;3.112;2023-02-13T19:25:50;10.20;99.90
18932;DHT22;9598;50.954;3.112;2023-02-13T19:30:52;10.10;99.90
18932;DHT22;9598;50.954;3.112;2023-02-13T19:36:00;10.10;99.90
18932;DHT22;9598;50.954;3.112;2023-02-13T19:41:03;10.00;99.90
18932;DHT22;9598;50.954;3.112;2023-02-13T19:46:07;10.00;99.90
18932;DHT22;9598;50.954;3.112;2023-02-13T19:51:13;9.90;99.90
18932;DHT22;9598;50.954;3.112;2023-02-13T19:56:15;9.80;99.90
18932;DHT22;9598;50.954;3.112;2023-02-13T20:01:19;9.70;99.90
18932;DHT22;9598;50.954;3.112;2023-02-13T20:06:25;9.50;99.90
18932;DHT22;9598;50.954;3.112;2023-02-13T20:11:28;9.40;99.90
18932;DHT22;9598;50.954;3.112;2023-02-13T20:16:31;9.30;99.90
18932;DHT22;9598;50.954;3.112;2023-02-13T20:21:38;9.20;99.90
18932;DHT22;9598;50.954;3.112;2023-02-13T20:26:41;9.10;99.90
18932;DHT22;9598;50.954;3.112;2023-02-13T20:31:43;9.00;99.90
18932;DHT22;9598;50.954;3.112;2023-02-13T20:36:47;8.90;99.90
18932;DHT22;9598;50.954;3.112;2023-02-13T20:41:49;8.80;99.90
18932;DHT22;9598;50.954;3.112;2023-02-13T20:46:51;8.80;99.90
18932;DHT22;9598;50.954;3.112;2023-02-13T20:51:56;8.70;99.90
18932;DHT22;9598;50.954;3.112;2023-02-13T20:56:58;8.70;99.90
18932;DHT22;9598;50.954;3.112;2023-02-13T21:02:01;8.60;99.90
18932;DHT22;9598;50.954;3.112;2023-02-13T21:07:05;8.60;99.90
18932;DHT22;9598;50.954;3.112;2023-02-13T21:12:09;8.50;99.90
18932;DHT22;9598;50.954;3.112;2023-02-13T21:17:11;8.40;99.90
18932;DHT22;9598;50.954;3.112;2023-02-13T21:22:15;8.30;99.90
18932;DHT22;9598;50.954;3.112;2023-02-13T21:27:17;8.30;99.90
18932;DHT22;9598;50.954;3.112;2023-02-13T21:32:19;8.20;99.90
18932;DHT22;9598;50.954;3.112;2023-02-13T21:37:22;8.20;99.90
18932;DHT22;9598;50.954;3.112;2023-02-13T21:42:25;8.10;99.90
18932;DHT22;9598;50.954;3.112;2023-02-13T21:47:27;8.10;99.90
18932;DHT22;9598;50.954;3.112;2023-02-13T21:52:30;8.00;99.90
18932;DHT22;9598;50.954;3.112;2023-02-13T21:57:33;7.90;99.90
18932;DHT22;9598;50.954;3.112;2023-02-13T22:02:36;7.90;99.90
18932;DHT22;9598;50.954;3.112;2023-02-13T22:07:40;7.90;99.90
18932;DHT22;9598;50.954;3.112;2023-02-13T22:12:56;7.80;99.90
18932;DHT22;9598;50.954;3.112;2023-02-13T22:17:58;7.70;99.90
18932;DHT22;9598;50.954;3.112;2023-02-13T22:23:02;7.60;99.90
18932;DHT22;9598;50.954;3.112;2023-02-13T22:28:04;7.60;99.90
18932;DHT22;9598;50.954;3.112;2023-02-13T22:33:06;7.50;99.90
18932;DHT22;9598;50.954;3.112;2023-02-13T22:38:10;7.50;99.90
18932;DHT22;9598;50.954;3.112;2023-02-13T22:43:13;7.50;99.90
18932;DHT22;9598;50.954;3.112;2023-02-13T22:48:15;7.50;99.90
18932;DHT22;9598;50.954;3.112;2023-02-13T22:53:18;7.50;99.90
18932;DHT22;9598;50.954;3.112;2023-02-13T22:58:20;7.40;99.90
18932;DHT22;9598;50.954;3.112;2023-02-13T23:03:23;7.40;99.90
18932;DHT22;9598;50.954;3.112;2023-02-13T23:08:26;7.40;99.90
18932;DHT22;9598;50.954;3.112;2023-02-13T23:13:28;7.40;99.90
18932;DHT22;9598;50.954;3.112;2023-02-13T23:18:31;7.40;99.90
18932;DHT22;9598;50.954;3.112;2023-02-13T23:23:35;7.40;99.90
18932;DHT22;9598;50.954;3.112;2023-02-13T23:28:38;7.30;99.90
18932;DHT22;9598;50.954;3.112;2023-02-13T23:33:40;7.30;99.90
18932;DHT22;9598;50.954;3.112;2023-02-13T23:38:44;7.20;99.90
18932;DHT22;9598;50.954;3.112;2023-02-13T23:43:46;7.20;99.90
18932;DHT22;9598;50.954;3.112;2023-02-13T23:48:48;7.10;99.90
18932;DHT22;9598;50.954;3.112;2023-02-13T23:53:51;7.10;99.90
18932;DHT22;9598;50.954;3.112;2023-02-13T23:58:55;7.10;99.90
